Time;durP1;ratioP1;P1;durP2;ratioP2;P2;SDS_P1;SDS_P2;PMS_P1;PMS_P2;Temp;Humidity;BMP_temperature;BMP_pressure;BME280_temperature;BME280_humidity;BME280_pressure;Samples;Min_cycle;Max_cycle;Signal;HPM_P1;HPM_P2
2023/11/01 00:00:16;;;;;;;;;;;;;;;8.41;100.00;95971.91;5083930;28;19955;-73
2023/11/01 00:02:42;;;;;;;;;;;;;;;8.42;100.00;95970.91;5083924;28;20132;-73
2023/11/01 00:05:08;;;;;;;;;;;;;;;8.40;100.00;95969.47;5082590;28;19958;-73
2023/11/01 00:07:34;;;;;;;;;;;;;;;8.39;100.00;95971.31;5087162;28;20019;-70
2023/11/01 00:10:00;;;;;;;;;;;;;;;8.38;100.00;95968.91;5087156;28;19980;-70
2023/11/01 00:12:25;;;;;;;;;;;;;;;8.40;100.00;95962.47;5087529;28;19968;-70
2023/11/01 00:14:51;;;;;;;;;;;;;;;8.42;100.00;95963.06;5087172;28;19960;-70
2023/11/01 00:17:17;;;;;;;;;;;;;;;8.41;100.00;95956.25;5086512;28;20154;-71
2023/11/01 00:19:43;;;;;;;;;;;;;;;8.40;100.00;95966.88;5087686;28;20031;-70
2023/11/01 00:22:09;;;;;;;;;;;;;;;8.41;100.00;95969.31;5086488;28;19968;-79
2023/11/01 00:24:36;;;;;;;;;;;;;;;8.44;100.00;95968.06;5087426;28;19956;-79
2023/11/01 00:27:03;;;;;;;;;;;;;;;8.43;100.00;95963.88;5087237;28;20120;-79
2023/11/01 00:29:29;;;;;;;;;;;;;;;8.44;100.00;95962.84;5087443;28;19963;-79
2023/11/01 00:31:55;;;;;;;;;;;;;;;8.42;100.00;95963.06;5087385;28;20269;-79
2023/11/01 00:34:20;;;;;;;;;;;;;;;8.43;100.00;95951.59;5086623;28;19953;-79
2023/11/01 00:36:46;;;;;;;;;;;;;;;8.43;100.00;95961.25;5086615;28;20024;-79
2023/11/01 00:39:12;;;;;;;;;;;;;;;8.42;100.00;95963.06;5086703;28;19970;-70
2023/11/01 00:41:38;;;;;;;;;;;;;;;8.37;100.00;95951.63;5086965;28;20134;-75
2023/11/01 00:44:04;;;;;;;;;;;;;;;8.33;100.00;95952.06;5086075;28;19959;-70
2023/11/01 00:46:30;;;;;;;;;;;;;;;8.32;100.00;95953.06;5086783;28;19963;-70
2023/11/01 00:48:56;;;;;;;;;;;;;;;8.34;100.00;95950.25;5086619;28;19994;-70
2023/11/01 00:51:22;;;;;;;;;;;;;;;8.37;100.00;95954.25;5086597;28;20142;-70
2023/11/01 00:53:48;;;;;;;;;;;;;;;8.40;100.00;95946.78;5086641;28;19953;-70
2023/11/01 00:56:13;;;;;;;;;;;;;;;8.43;100.00;95942.97;5086601;28;19962;-69
2023/11/01 00:58:39;;;;;;;;;;;;;;;8.45;100.00;95944.34;5086701;28;19966;-79
2023/11/01 01:01:05;;;;;;;;;;;;;;;8.47;100.00;95950.16;5086860;28;19966;-72
2023/11/01 01:03:31;;;;;;;;;;;;;;;8.50;100.00;95941.06;5086601;28;20229;-73
2023/11/01 01:05:57;;;;;;;;;;;;;;;8.53;100.00;95946.66;5086153;28;19954;-72
2023/11/01 01:08:22;;;;;;;;;;;;;;;8.55;100.00;95943.84;5086572;28;19987;-74
2023/11/01 01:10:48;;;;;;;;;;;;;;;8.55;100.00;95930.78;5086785;28;19942;-73
2023/11/01 01:13:14;;;;;;;;;;;;;;;8.57;100.00;95941.00;5086494;28;20018;-73
2023/11/01 01:15:40;;;;;;;;;;;;;;;8.56;100.00;95927.13;5086287;28;19963;-70
2023/11/01 01:18:06;;;;;;;;;;;;;;;8.57;100.00;95923.53;5086332;28;19958;-79
2023/11/01 01:20:32;;;;;;;;;;;;;;;8.57;100.00;95923.53;5086116;28;19957;-79
2023/11/01 01:22:57;;;;;;;;;;;;;;;8.54;100.00;95916.91;5086107;28;19963;-79
2023/11/01 01:25:23;;;;;;;;;;;;;;;8.54;100.00;95919.50;5086045;28;19967;-79
2023/11/01 01:27:49;;;;;;;;;;;;;;;8.50;100.00;95923.59;5086142;28;19956;-78
2023/11/01 01:30:15;;;;;;;;;;;;;;;8.47;100.00;95913.56;5086089;28;19954;-79
2023/11/01 01:32:41;;;;;;;;;;;;;;;8.46;100.00;95905.94;5086026;28;19966;-79
2023/11/01 01:35:07;;;;;;;;;;;;;;;8.44;100.00;95907.97;5085307;28;19963;-78
2023/11/01 01:37:32;;;;;;;;;;;;;;;8.43;100.00;95901.16;5086064;28;20255;-75
2023/11/01 01:39:59;;;;;;;;;;;;;;;8.42;100.00;95892.53;5085466;28;19980;-75
2023/11/01 01:42:25;;;;;;;;;;;;;;;8.42;100.00;95895.16;5085850;28;19954;-75
2023/11/01 01:44:50;;;;;;;;;;;;;;;8.41;100.00;95892.75;5085893;28;19952;-75
2023/11/01 01:47:17;;;;;;;;;;;;;;;8.39;100.00;95886.91;5085855;28;19972;-75
2023/11/01 01:49:43;;;;;;;;;;;;;;;8.38;100.00;95886.09;5085949;28;20258;-75
2023/11/01 01:52:09;;;;;;;;;;;;;;;8.39;100.00;95884.28;5085358;28;19969;-75
2023/11/01 01:54:35;;;;;;;;;;;;;;;8.37;100.00;95888.94;5085547;28;19952;-73
2023/11/01 01:57:01;;;;;;;;;;;;;;;8.37;100.00;95883.72;5085466;28;20259;-79
2023/11/01 01:59:27;;;;;;;;;;;;;;;8.37;100.00;95888.94;5085657;28;20141;-79
2023/11/01 02:01:55;;;;;;;;;;;;;;;8.36;100.00;95882.09;5085613;28;19995;-79
2023/11/01 02:04:21;;;;;;;;;;;;;;;8.33;100.00;95886.75;5084118;28;19969;-79
2023/11/01 02:06:47;;;;;;;;;;;;;;;8.33;100.00;95891.16;5085557;28;19965;-79
2023/11/01 02:09:16;;;;;;;;;;;;;;;8.32;100.00;95881.75;5085423;28;19963;-78
2023/11/01 02:11:42;;;;;;;;;;;;;;;8.32;100.00;95881.75;5084949;28;20014;-72
2023/11/01 02:14:08;;;;;;;;;;;;;;;8.30;100.00;95874.13;5084984;28;19970;-73
2023/11/01 02:16:34;;;;;;;;;;;;;;;8.27;100.00;95879.78;5084904;28;19962;-72
2023/11/01 02:19:00;;;;;;;;;;;;;;;8.26;100.00;95872.16;5084879;28;19996;-73
2023/11/01 02:21:26;;;;;;;;;;;;;;;8.25;100.00;95871.38;5085676;28;20010;-73
2023/11/01 02:23:51;;;;;;;;;;;;;;;8.23;100.00;95865.56;5084925;28;20246;-73
2023/11/01 02:26:17;;;;;;;;;;;;;;;8.23;100.00;95867.38;5085202;28;20001;-72
2023/11/01 02:28:43;;;;;;;;;;;;;;;8.21;100.00;95862.38;5084552;28;19962;-73
2023/11/01 02:31:09;;;;;;;;;;;;;;;8.20;100.00;95857.34;5084904;28;20000;-75
2023/11/01 02:33:35;;;;;;;;;;;;;;;8.20;100.00;95863.38;5084921;28;19967;-73
2023/11/01 02:36:01;;;;;;;;;;;;;;;8.19;100.00;95866.19;5084891;28;20148;-72
2023/11/01 02:38:26;;;;;;;;;;;;;;;8.19;100.00;95856.56;5084877;28;19956;-73
2023/11/01 02:40:52;;;;;;;;;;;;;;;8.20;100.00;95854.75;5085028;28;19941;-73
2023/11/01 02:43:18;;;;;;;;;;;;;;;8.20;100.00;95859.97;5084883;28;19960;-72
2023/11/01 02:45:45;;;;;;;;;;;;;;;8.19;100.00;95858.34;5084823;28;19958;-73
2023/11/01 02:48:11;;;;;;;;;;;;;;;8.19;100.00;95866.19;5084453;28;20115;-73
2023/11/01 02:50:37;;;;;;;;;;;;;;;8.18;100.00;95854.97;5084523;28;19964;-79
2023/11/01 02:53:03;;;;;;;;;;;;;;;8.18;100.00;95859.38;5084357;28;19979;-72
2023/11/01 02:55:29;;;;;;;;;;;;;;;8.18;100.00;95857.56;5084667;28;20000;-72
2023/11/01 02:57:55;;;;;;;;;;;;;;;8.18;100.00;95854.97;5084634;28;19963;-72
2023/11/01 03:00:21;;;;;;;;;;;;;;;8.17;100.00;95856.00;5084519;28;20003;-73
2023/11/01 03:02:53;;;;;;;;;;;;;;;8.19;100.00;95860.97;5084562;28;19962;-72
2023/11/01 03:05:19;;;;;;;;;;;;;;;8.17;100.00;95858.59;5084672;28;20161;-72
2023/11/01 03:07:46;;;;;;;;;;;;;;;8.17;100.00;95849.94;5084816;28;19942;-75
2023/11/01 03:10:12;;;;;;;;;;;;;;;8.14;100.00;95848.56;5084518;28;19962;-79
2023/11/01 03:12:38;;;;;;;;;;;;;;;8.13;100.00;95842.56;5082918;28;19964;-79
2023/11/01 03:15:07;;;;;;;;;;;;;;;8.12;100.00;95834.94;5082962;28;20238;-79
2023/11/01 03:17:34;;;;;;;;;;;;;;;8.11;100.00;95841.97;5066274;28;19960;-79
2023/11/01 03:20:00;;;;;;;;;;;;;;;8.10;100.00;95840.38;5084318;28;20141;-79
2023/11/01 03:22:26;;;;;;;;;;;;;;;8.09;100.00;95833.56;5084217;28;20140;-79
2023/11/01 03:24:52;;;;;;;;;;;;;;;8.10;100.00;95831.72;5084246;28;19960;-78
2023/11/01 03:27:17;;;;;;;;;;;;;;;8.09;100.00;95835.38;5084294;28;19962;-72
2023/11/01 03:29:43;;;;;;;;;;;;;;;8.09;100.00;95835.38;5084268;28;19964;-70
2023/11/01 03:32:09;;;;;;;;;;;;;;;8.09;100.00;95830.16;5084365;28;19962;-70
2023/11/01 03:34:35;;;;;;;;;;;;;;;8.07;100.00;95835.59;5084247;28;19958;-70
2023/11/01 03:37:01;;;;;;;;;;;;;;;8.05;100.00;95837.63;5083773;28;20246;-70
2023/11/01 03:39:26;;;;;;;;;;;;;;;8.01;100.00;95833.03;5084331;28;19962;-70
2023/11/01 03:41:52;;;;;;;;;;;;;;;7.99;100.00;95830.63;5087345;28;19959;-69
2023/11/01 03:44:18;;;;;;;;;;;;;;;7.97;100.00;95816.22;5087941;28;19967;-72
2023/11/01 03:46:45;;;;;;;;;;;;;;;7.96;100.00;95815.41;5088257;28;19966;-79
2023/11/01 03:49:11;;;;;;;;;;;;;;;7.93;100.00;95814.03;5087934;28;20155;-79
2023/11/01 03:51:37;;;;;;;;;;;;;;;7.93;100.00;95813.22;5087768;28;19973;-79
2023/11/01 03:54:03;;;;;;;;;;;;;;;7.90;100.00;95814.47;5088125;28;19964;-78
2023/11/01 03:56:30;;;;;;;;;;;;;;;7.90;100.00;95813.69;5087878;28;19952;-79
2023/11/01 03:58:56;;;;;;;;;;;;;;;7.88;100.00;95815.69;5088495;28;19988;-79
2023/11/01 04:01:21;;;;;;;;;;;;;;;7.86;100.00;95807.28;5087858;28;20326;-74
2023/11/01 04:03:47;;;;;;;;;;;;;;;7.84;100.00;95807.50;5087920;28;19957;-78
2023/11/01 04:06:13;;;;;;;;;;;;;;;7.83;100.00;95811.13;5087775;28;20000;-75
2023/11/01 04:08:39;;;;;;;;;;;;;;;7.80;100.00;95806.34;5087522;28;19950;-75
2023/11/01 04:11:05;;;;;;;;;;;;;;;7.78;100.00;95807.56;5086793;28;19968;-75
2023/11/01 04:13:31;;;;;;;;;;;;;;;7.77;100.00;95804.16;5087588;28;19966;-75
2023/11/01 04:15:57;;;;;;;;;;;;;;;7.73;100.00;95808.22;5087247;28;19957;-75
2023/11/01 04:18:24;;;;;;;;;;;;;;;7.70;100.00;95806.81;5087310;28;19984;-75
2023/11/01 04:20:49;;;;;;;;;;;;;;;7.70;100.00;95801.59;5087360;28;19962;-78
2023/11/01 04:23:16;;;;;;;;;;;;;;;7.71;100.00;95802.41;5087585;28;20318;-72
2023/11/01 04:25:42;;;;;;;;;;;;;;;7.69;100.00;95800.00;5087253;28;19966;-72
2023/11/01 04:28:08;;;;;;;;;;;;;;;7.69;100.00;95796.59;5087499;28;20151;-73
2023/11/01 04:30:38;;;;;;;;;;;;;;;7.70;100.00;95792.97;5087301;28;19958;-73
2023/11/01 04:33:08;;;;;;;;;;;;;;;7.69;100.00;95792.19;5087467;28;19970;-73
2023/11/01 04:35:34;;;;;;;;;;;;;;;7.69;100.00;95784.34;5086655;28;19961;-73
2023/11/01 04:38:01;;;;;;;;;;;;;;;7.70;100.00;95780.72;5087401;28;20148;-75
2023/11/01 04:40:26;;;;;;;;;;;;;;;7.69;100.00;95770.50;5086735;28;20147;-70
2023/11/01 04:42:52;;;;;;;;;;;;;;;7.69;100.00;95773.13;5087579;28;20028;-79
2023/11/01 04:45:18;;;;;;;;;;;;;;;7.67;100.00;95768.13;5086824;28;19954;-78
2023/11/01 04:47:46;;;;;;;;;;;;;;;7.65;100.00;95761.53;5086928;28;20025;-79
2023/11/01 04:50:13;;;;;;;;;;;;;;;7.64;100.00;95755.50;5086782;28;19955;-78
2023/11/01 04:52:39;;;;;;;;;;;;;;;7.61;100.00;95755.94;5086231;28;19990;-79
2023/11/01 04:55:05;;;;;;;;;;;;;;;7.60;100.00;95758.75;5086878;28;19959;-79
2023/11/01 04:57:32;;;;;;;;;;;;;;;7.56;100.00;95761.00;5086910;28;19961;-69
2023/11/01 04:59:57;;;;;;;;;;;;;;;7.50;100.00;95754.81;5086852;28;19960;-72
2023/11/01 05:02:23;;;;;;;;;;;;;;;7.48;100.00;95751.63;5086751;28;19969;-72
2023/11/01 05:04:49;;;;;;;;;;;;;;;7.46;100.00;95751.06;5086216;28;19944;-72
2023/11/01 05:07:15;;;;;;;;;;;;;;;7.47;100.00;95751.84;5086673;28;19956;-72
2023/11/01 05:09:41;;;;;;;;;;;;;;;7.46;100.00;95751.06;5086207;28;19954;-72
2023/11/01 05:12:07;;;;;;;;;;;;;;;7.47;100.00;95744.81;5086135;28;19967;-72
2023/11/01 05:14:33;;;;;;;;;;;;;;;7.49;100.00;95745.38;5086219;28;20006;-72
2023/11/01 05:16:59;;;;;;;;;;;;;;;7.51;100.00;95748.59;5085972;28;19948;-73
2023/11/01 05:19:25;;;;;;;;;;;;;;;7.52;100.00;95750.19;5086231;28;19956;-73
2023/11/01 05:21:51;;;;;;;;;;;;;;;7.54;100.00;95744.78;5086240;28;19979;-72
2023/11/01 05:24:17;;;;;;;;;;;;;;;7.55;100.00;95746.34;5086369;28;20239;-72
2023/11/01 05:26:43;;;;;;;;;;;;;;;7.55;100.00;95743.75;5085980;28;19958;-73
2023/11/01 05:29:10;;;;;;;;;;;;;;;7.55;100.00;95735.13;5086220;28;19998;-73
2023/11/01 05:31:36;;;;;;;;;;;;;;;7.55;100.00;95745.56;5086100;28;19952;-72
2023/11/01 05:34:03;;;;;;;;;;;;;;;7.54;100.00;95747.38;5086142;28;19960;-72
2023/11/01 05:36:29;;;;;;;;;;;;;;;7.53;100.00;95740.53;5085892;28;19963;-79
2023/11/01 05:38:55;;;;;;;;;;;;;;;7.53;100.00;95738.72;5085086;28;20254;-72
2023/11/01 05:41:21;;;;;;;;;;;;;;;7.51;100.00;95735.53;5086220;28;19965;-73
2023/11/01 05:43:47;;;;;;;;;;;;;;;7.51;100.00;95739.97;5085592;28;19962;-73
2023/11/01 05:46:13;;;;;;;;;;;;;;;7.48;100.00;95740.41;5085864;28;20016;-73
2023/11/01 05:48:39;;;;;;;;;;;;;;;7.47;100.00;95738.78;5085595;28;20259;-73
2023/11/01 05:51:05;;;;;;;;;;;;;;;7.46;100.00;95742.44;5085601;28;19958;-73
2023/11/01 05:53:31;;;;;;;;;;;;;;;7.43;100.00;95740.25;5085743;28;19961;-73
2023/11/01 05:56:00;;;;;;;;;;;;;;;7.42;100.00;95742.06;5085682;28;20033;-78
2023/11/01 05:58:28;;;;;;;;;;;;;;;7.43;100.00;95742.84;5085123;28;19952;-79
2023/11/01 06:00:54;;;;;;;;;;;;;;;7.39;100.00;95742.50;5085619;28;19966;-78
2023/11/01 06:03:20;;;;;;;;;;;;;;;7.40;100.00;95746.69;5084975;28;19945;-78
2023/11/01 06:05:46;;;;;;;;;;;;;;;7.39;100.00;95747.72;5085004;28;19955;-78
2023/11/01 06:08:13;;;;;;;;;;;;;;;7.38;100.00;95740.88;5085744;28;20304;-78
2023/11/01 06:10:40;;;;;;;;;;;;;;;7.38;100.00;95747.94;5085602;28;20271;-79
2023/11/01 06:13:10;;;;;;;;;;;;;;;7.35;100.00;95738.72;5085306;28;19972;-69
2023/11/01 06:15:36;;;;;;;;;;;;;;;7.35;100.00;95740.50;5085182;28;19962;-78
2023/11/01 06:18:05;;;;;;;;;;;;;;;7.35;100.00;95737.91;5085124;28;20131;-78
2023/11/01 06:20:31;;;;;;;;;;;;;;;7.37;100.00;95738.50;5085063;28;19955;-78
2023/11/01 06:22:58;;;;;;;;;;;;;;;7.38;100.00;95738.28;5085048;28;19956;-78
2023/11/01 06:25:23;;;;;;;;;;;;;;;7.40;100.00;95743.28;5085058;28;20257;-79
2023/11/01 06:27:49;;;;;;;;;;;;;;;7.43;100.00;95740.25;5084539;28;20037;-78
2023/11/01 06:30:16;;;;;;;;;;;;;;;7.44;100.00;95744.47;5085076;28;19955;-70
2023/11/01 06:32:42;;;;;;;;;;;;;;;7.46;100.00;95743.22;5084464;28;19964;-77
2023/11/01 06:35:08;;;;;;;;;;;;;;;7.47;100.00;95738.78;5085111;28;19968;-78
2023/11/01 06:37:34;;;;;;;;;;;;;;;7.48;100.00;95738.59;5084606;28;19970;-78
2023/11/01 06:40:01;;;;;;;;;;;;;;;7.52;100.00;95747.59;5084519;28;19966;-77
2023/11/01 06:42:26;;;;;;;;;;;;;;;7.51;100.00;95745.97;5084987;28;20231;-78
2023/11/01 06:44:52;;;;;;;;;;;;;;;7.53;100.00;95740.53;5084999;28;19964;-78
2023/11/01 06:47:18;;;;;;;;;;;;;;;7.56;100.00;95736.69;5084835;28;20130;-70
2023/11/01 06:49:44;;;;;;;;;;;;;;;7.57;100.00;95739.09;5084632;28;20029;-72
2023/11/01 06:52:10;;;;;;;;;;;;;;;7.59;100.00;95742.28;5084732;28;19971;-69
2023/11/01 06:54:40;;;;;;;;;;;;;;;7.63;100.00;95753.91;5084665;28;19965;-70
2023/11/01 06:57:06;;;;;;;;;;;;;;;7.74;100.00;95744.56;5084799;28;19957;-69
2023/11/01 06:59:32;;;;;;;;;;;;;;;7.94;100.00;95736.53;5084611;28;19972;-70
2023/11/01 07:01:58;;;;;;;;;;;;;;;8.14;100.00;95742.28;5084661;28;19939;-70
2023/11/01 07:04:24;;;;;;;;;;;;;;;8.32;100.00;95735.47;5084453;28;19955;-71
2023/11/01 07:06:50;;;;;;;;;;;;;;;8.46;100.00;95743.94;5084670;28;19960;-75
2023/11/01 07:09:16;;;;;;;;;;;;;;;8.53;100.00;95739.44;5084257;28;19964;-78
2023/11/01 07:11:41;;;;;;;;;;;;;;;8.59;100.00;95737.72;5084244;28;19959;-78
2023/11/01 07:14:09;;;;;;;;;;;;;;;8.62;100.00;95743.31;5084084;28;19964;-78
2023/11/01 07:16:39;;;;;;;;;;;;;;;8.65;100.00;95729.00;5084331;28;19961;-78
2023/11/01 07:19:06;;;;;;;;;;;;;;;8.66;100.00;95733.22;5084363;28;19963;-78
2023/11/01 07:21:32;;;;;;;;;;;;;;;8.66;100.00;95738.44;5084402;28;19967;-79
2023/11/01 07:23:58;;;;;;;;;;;;;;;8.71;100.00;95733.34;5084429;28;20255;-77
2023/11/01 07:26:24;;;;;;;;;;;;;;;8.74;100.00;95740.75;5084417;28;19958;-73
2023/11/01 07:28:49;;;;;;;;;;;;;;;8.73;100.00;95728.69;5084381;28;19959;-78
2023/11/01 07:31:15;;;;;;;;;;;;;;;8.73;100.00;95724.28;5084397;28;20061;-79
2023/11/01 07:33:42;;;;;;;;;;;;;;;8.77;100.00;95716.75;5083705;28;19966;-79
2023/11/01 07:36:08;;;;;;;;;;;;;;;8.83;100.00;95717.69;5083431;28;19968;-78
2023/11/01 07:38:34;;;;;;;;;;;;;;;8.91;100.00;95702.47;5084019;28;19962;-79
2023/11/01 07:41:00;;;;;;;;;;;;;;;8.95;100.00;95694.97;5084227;28;19964;-79
2023/11/01 07:43:26;;;;;;;;;;;;;;;9.00;100.00;95695.09;5084032;28;19966;-79
2023/11/01 07:45:55;;;;;;;;;;;;;;;9.05;100.00;95690.00;5082935;28;19968;-75
2023/11/01 07:48:21;;;;;;;;;;;;;;;9.12;100.00;95684.66;5084195;28;19959;-75
2023/11/01 07:50:47;;;;;;;;;;;;;;;9.16;100.00;95685.00;5084036;28;19981;-75
2023/11/01 07:53:13;;;;;;;;;;;;;;;9.16;100.00;95688.41;5084087;28;19968;-75
2023/11/01 07:55:38;;;;;;;;;;;;;;;9.22;100.00;95700.56;5084083;28;19974;-75
2023/11/01 07:58:06;;;;;;;;;;;;;;;9.28;100.00;95699.66;5082641;28;19960;-75
2023/11/01 08:00:32;;;;;;;;;;;;;;;9.34;100.00;95690.09;5084245;28;19963;-75
2023/11/01 08:02:57;;;;;;;;;;;;;;;9.40;100.00;95697.03;5084235;28;20021;-78
2023/11/01 08:05:23;;;;;;;;;;;;;;;9.45;100.00;95688.50;5083621;28;20003;-72
2023/11/01 08:07:49;;;;;;;;;;;;;;;9.42;100.00;95688.97;5083583;28;19957;-73
2023/11/01 08:10:15;;;;;;;;;;;;;;;9.42;100.00;95691.56;5083730;28;19958;-73
2023/11/01 08:12:41;;;;;;;;;;;;;;;9.45;100.00;95685.88;5083652;28;20163;-73
2023/11/01 08:15:07;;;;;;;;;;;;;;;9.52;100.00;95687.34;5083778;28;19959;-73
2023/11/01 08:17:33;;;;;;;;;;;;;;;9.67;100.00;95683.47;5083706;28;19955;-73
2023/11/01 08:19:59;;;;;;;;;;;;;;;9.81;100.00;95692.66;5083883;28;20007;-79
2023/11/01 08:22:25;;;;;;;;;;;;;;;9.92;100.00;95683.97;5084016;28;20017;-74
2023/11/01 08:24:51;;;;;;;;;;;;;;;9.96;100.00;95692.97;5082500;28;20004;-73
2023/11/01 08:27:17;;;;;;;;;;;;;;;10.00;100.00;95693.31;5085497;28;19959;-73
2023/11/01 08:29:43;;;;;;;;;;;;;;;10.03;100.00;95692.03;5087555;28;19954;-73
2023/11/01 08:32:09;;;;;;;;;;;;;;;10.06;100.00;95689.75;5087513;28;19957;-73
2023/11/01 08:34:35;;;;;;;;;;;;;;;10.11;100.00;95691.66;5087232;28;19958;-73
2023/11/01 08:37:02;;;;;;;;;;;;;;;10.19;100.00;95690.50;5087279;28;20018;-72
2023/11/01 08:39:28;;;;;;;;;;;;;;;10.30;100.00;95695.72;5086973;28;19956;-73
2023/11/01 08:41:54;;;;;;;;;;;;;;;10.36;100.00;95701.84;5086642;28;19971;-69
2023/11/01 08:44:19;;;;;;;;;;;;;;;10.40;100.00;95694.34;5086901;28;20014;-68
2023/11/01 08:46:45;;;;;;;;;;;;;;;10.39;100.00;95695.34;5087040;28;19966;-69
2023/11/01 08:49:11;;;;;;;;;;;;;;;10.36;100.00;95709.72;5086881;28;19954;-69
2023/11/01 08:51:39;;;;;;;;;;;;;;;10.39;100.00;95708.44;5086972;28;20024;-69
2023/11/01 08:54:05;;;;;;;;;;;;;;;10.45;100.00;95697.03;5086856;28;20279;-69
2023/11/01 08:56:31;;;;;;;;;;;;;;;10.48;100.00;95689.50;5086772;28;19964;-73
2023/11/01 08:58:57;;;;;;;;;;;;;;;10.48;100.00;95686.88;5086895;28;20171;-79
2023/11/01 09:01:24;;;;;;;;;;;;;;;10.49;100.00;95690.28;5087060;28;19958;-72
2023/11/01 09:03:50;;;;;;;;;;;;;;;10.51;100.00;95691.63;5086930;28;19968;-73
2023/11/01 09:06:16;;;;;;;;;;;;;;;10.61;100.00;95705.97;5085158;28;19965;-72
2023/11/01 09:08:42;;;;;;;;;;;;;;;10.70;100.00;95692.22;5086334;28;20146;-72
2023/11/01 09:11:08;;;;;;;;;;;;;;;10.78;100.00;95680.56;5086050;28;19961;-73
2023/11/01 09:13:35;;;;;;;;;;;;;;;10.79;100.00;95681.34;5086304;28;19991;-72
2023/11/01 09:16:01;;;;;;;;;;;;;;;10.82;100.00;95683.50;5086687;28;19959;-69
2023/11/01 09:18:27;;;;;;;;;;;;;;;10.92;100.00;95687.09;5086587;28;20099;-79
2023/11/01 09:20:53;;;;;;;;;;;;;;;11.06;100.00;95690.16;5086423;28;20243;-78
2023/11/01 09:23:19;;;;;;;;;;;;;;;11.23;100.00;95686.75;5086417;28;19952;-78
2023/11/01 09:25:44;;;;;;;;;;;;;;;11.34;100.00;95664.88;5086391;28;20084;-77
2023/11/01 09:28:10;;;;;;;;;;;;;;;11.31;100.00;95654.84;5086330;28;19947;-78
2023/11/01 09:30:36;;;;;;;;;;;;;;;11.27;100.00;95678.13;5085819;28;19962;-78
2023/11/01 09:33:02;;;;;;;;;;;;;;;11.23;100.00;95676.25;5086435;28;20298;-73
2023/11/01 09:35:29;;;;;;;;;;;;;;;11.24;100.00;95675.22;5086064;28;20185;-73
2023/11/01 09:37:54;;;;;;;;;;;;;;;11.33;100.00;95684.28;5085734;28;19954;-73
2023/11/01 09:40:21;;;;;;;;;;;;;;;11.39;100.00;95683.31;5085725;28;20281;-73
2023/11/01 09:42:48;;;;;;;;;;;;;;;11.42;100.00;95674.94;5085794;28;19956;-73
2023/11/01 09:45:14;;;;;;;;;;;;;;;11.49;100.00;95666.91;5085791;28;19964;-73
2023/11/01 09:47:40;;;;;;;;;;;;;;;11.56;100.00;95664.88;5085795;28;19963;-73
2023/11/01 09:50:10;;;;;;;;;;;;;;;11.66;100.00;95661.63;5085810;28;19966;-73
2023/11/01 09:52:37;;;;;;;;;;;;;;;11.71;100.00;95653.78;5085712;28;19962;-73
2023/11/01 09:55:04;;;;;;;;;;;;;;;11.76;100.00;95654.66;5085720;28;19956;-73
2023/11/01 09:57:32;;;;;;;;;;;;;;;11.89;100.00;95660.59;5084704;28;19957;-74
2023/11/01 09:59:59;;;;;;;;;;;;;;;12.02;100.00;95654.97;5085210;28;19962;-73
2023/11/01 10:02:24;;;;;;;;;;;;;;;12.11;100.00;95652.69;5085197;28;19956;-73
2023/11/01 10:04:50;;;;;;;;;;;;;;;12.22;100.00;95654.41;5085219;28;19960;-73
2023/11/01 10:07:17;;;;;;;;;;;;;;;12.32;100.00;95643.97;5085165;28;19957;-73
2023/11/01 10:09:43;;;;;;;;;;;;;;;12.41;100.00;95619.84;5084874;28;19960;-78
2023/11/01 10:12:09;;;;;;;;;;;;;;;12.43;100.00;95629.09;5085174;28;20025;-73
2023/11/01 10:14:36;;;;;;;;;;;;;;;12.50;100.00;95639.41;5085130;28;19970;-83
2023/11/01 10:17:02;;;;;;;;;;;;;;;12.56;100.00;95626.06;5085153;28;19954;-83
2023/11/01 10:19:28;;;;;;;;;;;;;;;12.64;100.00;95609.03;5085236;28;19967;-85
2023/11/01 10:21:55;;;;;;;;;;;;;;;12.65;100.00;95599.28;5085221;28;19973;-85
2023/11/01 10:24:23;;;;;;;;;;;;;;;12.69;100.00;95610.91;5085173;28;19957;-84
2023/11/01 10:26:49;;;;;;;;;;;;;;;12.80;100.00;95586.25;5084942;28;20133;-86
2023/11/01 10:29:15;;;;;;;;;;;;;;;12.86;100.00;95584.44;5085420;28;19966;-84
2023/11/01 10:31:41;;;;;;;;;;;;;;;12.92;100.00;95586.06;5084401;28;19964;-69
2023/11/01 10:34:11;;;;;;;;;;;;;;;12.96;100.00;95590.56;5084186;28;19970;-70
2023/11/01 10:36:50;;;;;;;;;;;;;;;12.96;100.00;95593.19;5084547;28;19966;-70
2023/11/01 10:39:17;;;;;;;;;;;;;;;12.96;100.00;95558.22;5084500;28;19955;-70
2023/11/01 10:41:46;;;;;;;;;;;;;;;13.01;100.00;95581.91;5084908;28;19965;-70
2023/11/01 10:44:12;;;;;;;;;;;;;;;13.08;100.00;95573.78;5084798;28;20036;-70
2023/11/01 10:46:38;;;;;;;;;;;;;;;13.17;100.00;95575.69;5084789;28;19963;-69
2023/11/01 10:49:05;;;;;;;;;;;;;;;13.28;100.00;95550.19;5084416;28;19960;-73
2023/11/01 10:51:32;;;;;;;;;;;;;;;13.42;100.00;95526.84;5084738;28;19970;-71
2023/11/01 10:53:59;;;;;;;;;;;;;;;13.54;100.00;95509.00;5084849;28;19974;-70
2023/11/01 10:56:26;;;;;;;;;;;;;;;13.76;100.00;95518.53;5084315;28;20112;-70
2023/11/01 10:58:52;;;;;;;;;;;;;;;13.90;100.00;95514.34;5084659;28;20137;-71
2023/11/01 11:01:26;;;;;;;;;;;;;;;14.09;100.00;95514.63;5084292;28;19955;-71
2023/11/01 11:04:02;;;;;;;;;;;;;;;14.21;100.00;95475.59;5084402;28;19980;-71
2023/11/01 11:06:33;;;;;;;;;;;;;;;14.29;100.00;95487.44;5084125;28;19960;-74
2023/11/01 11:09:21;;;;;;;;;;;;;;;14.31;100.00;95464.25;5084090;28;19966;-71
2023/11/01 11:12:05;;;;;;;;;;;;;;;14.32;100.00;95438.66;5084460;28;19947;-70
2023/11/01 11:14:41;;;;;;;;;;;;;;;14.32;100.00;95444.75;5083993;28;20150;-71
2023/11/01 11:17:08;;;;;;;;;;;;;;;14.22;100.00;95423.66;5084609;28;20274;-71
2023/11/01 11:19:52;;;;;;;;;;;;;;;14.12;100.00;95477.16;5084179;28;19967;-71
2023/11/01 11:22:18;;;;;;;;;;;;;;;14.01;100.00;95479.00;5084262;28;19961;-71
2023/11/01 11:24:46;;;;;;;;;;;;;;;13.98;100.00;95470.84;5084413;28;19961;-71
2023/11/01 11:27:32;;;;;;;;;;;;;;;13.93;100.00;95473.47;5084404;28;20062;-75
2023/11/01 11:29:58;;;;;;;;;;;;;;;13.84;100.00;95438.16;5069964;28;19966;-75
2023/11/01 11:32:24;;;;;;;;;;;;;;;13.78;100.00;95445.28;5083936;28;19958;-74
2023/11/01 11:34:50;;;;;;;;;;;;;;;13.72;100.00;95468.19;5084114;28;20007;-76
2023/11/01 11:37:27;;;;;;;;;;;;;;;13.71;100.00;95432.38;5084145;28;20147;-75
2023/11/01 11:39:54;;;;;;;;;;;;;;;13.76;100.00;95463.19;5084027;28;19963;-75
2023/11/01 11:42:38;;;;;;;;;;;;;;;13.84;100.00;95435.50;5084039;28;20036;-78
2023/11/01 11:45:04;;;;;;;;;;;;;;;13.89;100.00;95425.78;5082924;28;19961;-79
2023/11/01 11:47:31;;;;;;;;;;;;;;;13.96;100.00;95428.94;5084147;28;20137;-78
2023/11/01 11:50:07;;;;;;;;;;;;;;;14.06;100.00;95427.34;5083637;28;19980;-79
2023/11/01 11:52:33;;;;;;;;;;;;;;;14.13;100.00;95402.31;5083827;28;19962;-79
2023/11/01 11:54:59;;;;;;;;;;;;;;;14.19;100.00;95419.72;5083834;28;19968;-79
2023/11/01 11:57:29;;;;;;;;;;;;;;;14.21;100.00;95404.41;5083561;28;20001;-79
2023/11/01 12:00:08;;;;;;;;;;;;;;;14.21;100.00;95412.31;5082929;28;20166;-75
2023/11/01 12:02:34;;;;;;;;;;;;;;;14.22;100.00;95386.75;5086187;28;19958;-73
2023/11/01 12:05:01;;;;;;;;;;;;;;;14.20;100.00;95402.03;5087721;28;19968;-70
2023/11/01 12:07:27;;;;;;;;;;;;;;;14.14;100.00;95371.47;5086903;28;20137;-70
2023/11/01 12:09:53;;;;;;;;;;;;;;;14.06;100.00;95359.59;5087740;28;19964;-70
2023/11/01 12:12:20;;;;;;;;;;;;;;;13.97;100.00;95364.63;5087680;28;19961;-70
2023/11/01 12:14:46;;;;;;;;;;;;;;;13.90;100.00;95358.84;5087748;28;19958;-70
2023/11/01 12:17:12;;;;;;;;;;;;;;;13.84;99.43;95345.91;5086000;28;20146;-70
2023/11/01 12:19:45;;;;;;;;;;;;;;;13.80;100.00;95362.25;5087209;28;19953;-75
2023/11/01 12:22:11;;;;;;;;;;;;;;;13.75;100.00;95366.75;5087305;28;19968;-79
2023/11/01 12:24:37;;;;;;;;;;;;;;;13.70;99.56;95340.41;5087361;28;19956;-79
2023/11/01 12:27:04;;;;;;;;;;;;;;;13.68;100.00;95377.53;5086974;28;20171;-79
2023/11/01 12:29:46;;;;;;;;;;;;;;;13.67;100.00;95369.91;5087216;28;19965;-80
2023/11/01 12:32:16;;;;;;;;;;;;;;;13.65;100.00;95364.09;5087283;28;19959;-79
2023/11/01 12:34:48;;;;;;;;;;;;;;;13.64;100.00;95354.63;5087143;28;19970;-79
2023/11/01 12:37:14;;;;;;;;;;;;;;;13.63;98.88;95316.16;5087179;28;19953;-75
2023/11/01 12:39:53;;;;;;;;;;;;;;;13.61;100.00;95334.88;5087258;28;19958;-86